createdAt,value
2017-08-18T00:00:02.763Z,79.57
2017-08-18T00:02:31.072Z,79.54
2017-08-18T00:04:58.979Z,79.50
2017-08-18T00:07:26.920Z,79.26
2017-08-18T00:09:54.833Z,79.31
2017-08-18T00:12:23.130Z,79.56
2017-08-18T00:14:51.035Z,79.47
2017-08-18T00:17:19.137Z,78.93
2017-08-18T00:19:47.043Z,79.50
2017-08-18T00:22:14.953Z,79.35
2017-08-18T00:24:42.872Z,79.08
2017-08-18T00:27:11.167Z,78.93
2017-08-18T00:29:39.192Z,78.63
2017-08-18T00:32:07.091Z,78.93
2017-08-18T00:34:35.391Z,78.61
2017-08-18T00:37:03.297Z,78.47
2017-08-18T00:39:31.213Z,78.47
2017-08-18T00:41:59.383Z,78.50
2017-08-18T00:44:27.303Z,78.63
2017-08-18T00:46:55.202Z,78.64
2017-08-18T00:49:23.127Z,78.62
2017-08-18T00:51:51.040Z,78.17
2017-08-18T00:54:19.357Z,77.86
2017-08-18T00:56:47.255Z,77.31
2017-08-18T00:59:15.155Z,77.07
2017-08-18T01:01:43.472Z,76.71
2017-08-18T01:04:11.379Z,76.30
2017-08-18T01:06:39.310Z,75.71
2017-08-18T01:09:07.206Z,75.53
2017-08-18T01:11:35.119Z,76.00
2017-08-18T01:14:03.422Z,75.28
2017-08-18T01:16:31.545Z,75.43
2017-08-18T01:18:59.456Z,75.67
2017-08-18T01:21:27.358Z,75.51
2017-08-18T01:23:55.280Z,75.64
2017-08-18T01:26:23.589Z,75.66
2017-08-18T01:28:51.498Z,75.77
2017-08-18T01:31:19.408Z,75.73
2017-08-18T01:33:47.315Z,75.98
2017-08-18T01:36:15.304Z,76.60
2017-08-18T01:38:43.377Z,77.04
2017-08-18T01:41:11.278Z,76.93
2017-08-18T01:43:39.188Z,77.22
2017-08-18T01:46:07.110Z,77.11
2017-08-18T01:48:35.398Z,77.64
2017-08-18T01:51:03.310Z,77.74
2017-08-18T01:53:31.210Z,77.43
2017-08-18T01:55:59.629Z,77.42
2017-08-18T01:58:27.557Z,78.09
2017-08-18T02:00:55.820Z,78.14
2017-08-18T02:03:23.730Z,78.69
2017-08-18T02:05:51.646Z,78.57
2017-08-18T02:08:19.560Z,79.50
2017-08-18T02:10:47.487Z,80.14
2017-08-18T02:13:15.395Z,80.76
2017-08-18T02:15:43.708Z,81.42
2017-08-18T02:18:11.850Z,81.80
2017-08-18T02:20:39.760Z,82.21
2017-08-18T02:23:07.659Z,82.05
2017-08-18T02:25:35.578Z,82.50
2017-08-18T02:28:03.488Z,82.48
2017-08-18T02:30:31.398Z,81.80
2017-08-18T02:32:59.296Z,81.83
2017-08-18T02:35:27.206Z,82.00
2017-08-18T02:37:55.109Z,82.32
2017-08-18T02:40:23.226Z,82.96
2017-08-18T02:42:51.137Z,83.28
2017-08-18T02:45:19.443Z,83.75
2017-08-18T02:47:47.601Z,84.21
2017-08-18T02:50:15.499Z,84.54
2017-08-18T02:52:43.425Z,84.97
2017-08-18T02:55:11.733Z,84.74
2017-08-18T02:57:39.639Z,84.74
2017-08-18T03:00:07.549Z,85.19
2017-08-18T03:02:35.581Z,85.84
2017-08-18T03:05:03.488Z,86.30
2017-08-18T03:07:31.397Z,86.34
2017-08-18T03:09:59.320Z,86.28
2017-08-18T03:12:27.824Z,86.78
2017-08-18T03:14:55.745Z,87.29
2017-08-18T03:17:23.643Z,87.24
2017-08-18T03:19:51.555Z,87.10
2017-08-18T03:22:19.460Z,86.86
2017-08-18T03:24:47.930Z,87.04
2017-08-18T03:27:16.139Z,87.03
2017-08-18T03:29:44.060Z,87.13
2017-08-18T03:32:11.962Z,86.30
2017-08-18T03:34:40.273Z,86.62
2017-08-18T03:37:08.187Z,86.90
2017-08-18T03:39:36.091Z,87.53
2017-08-18T03:42:04.003Z,87.47
2017-08-18T03:44:31.942Z,87.66
2017-08-18T03:46:59.847Z,87.61
2017-08-18T03:49:27.759Z,87.46
2017-08-18T03:51:56.448Z,87.51
2017-08-18T03:54:24.352Z,87.32
2017-08-18T03:56:52.251Z,86.76
2017-08-18T03:59:20.162Z,87.19
2017-08-18T04:01:48.068Z,86.76
2017-08-18T04:04:15.974Z,87.29
2017-08-18T04:06:44.280Z,87.29
2017-08-18T04:09:12.186Z,86.76
2017-08-18T04:11:40.093Z,86.51
2017-08-18T04:14:08.751Z,86.54
2017-08-18T04:16:36.669Z,86.24
2017-08-18T04:19:04.571Z,86.02
2017-08-18T04:21:32.479Z,85.35
2017-08-18T04:24:00.784Z,85.26
2017-08-18T04:26:28.691Z,84.65
2017-08-18T04:28:56.600Z,84.54
2017-08-18T04:31:24.899Z,83.86
2017-08-18T04:33:52.813Z,83.81
2017-08-18T04:36:20.723Z,83.78
2017-08-18T04:38:49.024Z,84.26
2017-08-18T04:41:16.940Z,84.01
2017-08-18T04:43:44.909Z,83.96
2017-08-18T04:46:12.822Z,83.78
2017-08-18T04:48:40.714Z,83.05
2017-08-18T04:51:08.820Z,82.66
2017-08-18T04:53:36.714Z,82.07
2017-08-18T04:56:04.611Z,81.21
2017-08-18T04:58:32.540Z,80.54
2017-08-18T05:01:27.211Z,79.87
2017-08-18T05:03:55.187Z,79.22
2017-08-18T05:06:23.096Z,78.80
2017-08-18T05:08:51.006Z,78.52
2017-08-18T05:11:18.923Z,78.51
2017-08-18T05:13:46.845Z,78.07
2017-08-18T05:16:14.765Z,77.54
2017-08-18T05:18:42.687Z,77.31
2017-08-18T05:21:10.583Z,76.71
2017-08-18T05:23:38.496Z,73.93
2017-08-18T05:26:06.400Z,71.15
2017-08-18T05:28:34.325Z,67.62
2017-08-18T05:31:02.214Z,64.66
2017-08-18T05:33:30.565Z,62.54
2017-08-18T05:35:58.474Z,59.86
2017-08-18T05:38:26.381Z,58.22
2017-08-18T05:40:54.299Z,55.74
2017-08-18T05:43:22.440Z,53.10
2017-08-18T05:45:50.356Z,52.46
2017-08-18T05:48:18.295Z,50.37
2017-08-18T05:50:46.212Z,49.38
2017-08-18T05:53:14.120Z,47.26
2017-08-18T05:55:42.242Z,43.36
2017-08-18T05:58:10.143Z,42.98
2017-08-18T06:00:38.331Z,41.68
2017-08-18T06:03:06.320Z,45.15
2017-08-18T06:05:34.221Z,49.38
2017-08-18T06:08:02.136Z,52.12
2017-08-18T06:10:30.100Z,54.46
2017-08-18T06:12:58.016Z,56.07
2017-08-18T06:15:25.910Z,57.53
2017-08-18T06:17:53.989Z,58.81
2017-08-18T06:20:21.887Z,60.32
2017-08-18T06:22:49.800Z,60.47
2017-08-18T06:25:17.716Z,58.24
2017-08-18T06:27:45.629Z,54.55
2017-08-18T06:30:13.580Z,51.94
2017-08-18T06:32:41.478Z,49.31
2017-08-18T06:35:09.401Z,48.35
2017-08-18T06:37:37.309Z,45.54
2017-08-18T06:40:05.227Z,43.74
2017-08-18T06:42:33.139Z,45.04
2017-08-18T06:45:01.785Z,45.00
2017-08-18T06:47:29.395Z,43.59
2017-08-18T06:49:57.309Z,44.20
2017-08-18T06:52:25.229Z,44.00
2017-08-18T06:54:53.217Z,41.94
2017-08-18T06:57:21.182Z,41.74
2017-08-18T06:59:49.082Z,40.71
2017-08-18T07:02:17.004Z,40.45
2017-08-18T07:04:44.907Z,38.72
2017-08-18T07:07:12.954Z,38.01
2017-08-18T07:09:40.860Z,38.03
2017-08-18T07:12:08.772Z,39.04
2017-08-18T07:14:36.682Z,38.06
2017-08-18T07:17:04.596Z,36.81
2017-08-18T07:19:32.519Z,40.17
2017-08-18T07:22:00.434Z,42.49
2017-08-18T07:24:28.335Z,44.46
2017-08-18T07:26:56.235Z,44.32
2017-08-18T07:29:24.280Z,45.36
2017-08-18T07:31:52.189Z,45.71
2017-08-18T07:34:20.090Z,45.15
2017-08-18T07:36:48.002Z,45.17
2017-08-18T07:39:15.907Z,45.58
2017-08-18T07:41:43.828Z,47.11
2017-08-18T07:44:11.752Z,49.31
2017-08-18T07:46:39.862Z,49.00
2017-08-18T07:49:07.762Z,47.98
2017-08-18T07:51:35.659Z,45.51
2017-08-18T07:54:03.566Z,43.56
2017-08-18T07:56:31.477Z,42.72
2017-08-18T07:58:59.399Z,43.55
2017-08-18T08:01:27.308Z,41.88
2017-08-18T08:03:55.216Z,41.01
2017-08-18T08:06:23.364Z,42.64
2017-08-18T08:08:51.280Z,44.71
2017-08-18T08:11:19.319Z,45.67
2017-08-18T08:13:47.430Z,45.12
2017-08-18T08:16:15.326Z,44.80
2017-08-18T08:18:43.217Z,45.22
2017-08-18T08:21:11.127Z,46.01
2017-08-18T08:23:39.022Z,44.89
2017-08-18T08:26:06.947Z,43.19
2017-08-18T08:28:34.860Z,41.20
2017-08-18T08:31:02.775Z,43.33
2017-08-18T08:33:30.675Z,42.46
2017-08-18T08:35:58.578Z,42.02
2017-08-18T08:38:26.478Z,42.59
2017-08-18T08:40:54.596Z,43.77
2017-08-18T08:43:22.496Z,44.26
2017-08-18T08:45:50.401Z,44.41
2017-08-18T08:48:18.302Z,43.63
2017-08-18T08:50:46.197Z,43.68
2017-08-18T08:53:14.101Z,44.83
2017-08-18T08:55:42.011Z,45.43
2017-08-18T08:58:09.924Z,44.36
2017-08-18T09:02:31.087Z,41.95
2017-08-18T09:04:58.997Z,40.72
2017-08-18T09:07:26.898Z,36.46
2017-08-18T09:09:54.798Z,35.00
2017-08-18T09:12:22.758Z,33.19
2017-08-18T09:14:50.982Z,34.20
2017-08-18T09:17:18.878Z,35.57
2017-08-18T09:19:46.785Z,37.28
2017-08-18T09:22:14.704Z,35.40
2017-08-18T09:24:42.823Z,32.89
2017-08-18T09:27:10.723Z,32.18
2017-08-18T09:29:38.628Z,31.41
2017-08-18T09:32:06.535Z,33.19
2017-08-18T09:34:34.429Z,33.27
2017-08-18T09:37:02.367Z,32.20
2017-08-18T09:39:30.372Z,31.85
2017-08-18T09:41:58.274Z,31.55
2017-08-18T09:44:26.184Z,31.47
2017-08-18T09:46:54.238Z,29.69
2017-08-18T09:49:33.849Z,29.00
2017-08-18T09:52:13.532Z,28.84
2017-08-18T09:54:53.310Z,30.41
2017-08-18T09:57:33.222Z,29.62
2017-08-18T10:00:01.134Z,29.67
2017-08-18T10:02:29.074Z,29.95
2017-08-18T10:04:56.975Z,32.19
2017-08-18T10:07:24.884Z,30.83
2017-08-18T10:09:52.786Z,30.06
2017-08-18T10:12:20.994Z,29.18
2017-08-18T10:14:48.908Z,30.42
2017-08-18T10:17:16.802Z,30.29
2017-08-18T10:19:45.064Z,31.01
2017-08-18T10:22:12.963Z,31.47
2017-08-18T10:24:40.867Z,30.82
2017-08-18T10:27:08.784Z,30.05
2017-08-18T10:29:36.693Z,31.80
2017-08-18T10:32:04.598Z,33.87
2017-08-18T10:34:32.508Z,35.69
2017-08-18T10:37:00.410Z,36.42
2017-08-18T10:39:28.311Z,36.77
2017-08-18T10:41:56.488Z,36.78
2017-08-18T10:44:24.383Z,38.40
2017-08-18T10:46:52.292Z,39.22
2017-08-18T10:49:20.211Z,40.35
2017-08-18T10:51:48.115Z,42.23
2017-08-18T10:54:16.028Z,42.13
2017-08-18T10:56:43.922Z,41.56
2017-08-18T10:59:11.851Z,40.78
2017-08-18T11:01:39.783Z,40.98
2017-08-18T11:04:07.690Z,39.14
2017-08-18T11:06:35.587Z,39.25
2017-08-18T11:09:03.598Z,39.99
2017-08-18T11:11:31.507Z,39.80
2017-08-18T11:13:59.397Z,39.86
2017-08-18T11:16:27.315Z,41.67
2017-08-18T11:18:55.328Z,42.08
2017-08-18T11:21:23.234Z,42.70
2017-08-18T11:23:51.154Z,41.89
2017-08-18T11:26:19.331Z,42.91
2017-08-18T11:28:47.240Z,44.56
2017-08-18T11:31:15.148Z,45.60
2017-08-18T11:33:43.054Z,46.15
2017-08-18T11:36:10.957Z,46.58
2017-08-18T11:38:38.866Z,47.15
2017-08-18T11:41:06.771Z,47.43
2017-08-18T11:43:34.688Z,47.45
2017-08-18T11:46:02.679Z,47.85
2017-08-18T11:48:30.601Z,47.87
2017-08-18T11:50:58.498Z,47.25
2017-08-18T11:53:26.588Z,47.62
2017-08-18T11:55:54.482Z,47.38
2017-08-18T11:58:22.378Z,47.14
2017-08-18T12:00:50.286Z,48.13
2017-08-18T12:03:18.196Z,48.77
2017-08-18T12:05:46.102Z,48.92
2017-08-18T12:08:14.101Z,49.79
2017-08-18T12:10:41.997Z,49.34
2017-08-18T12:13:09.907Z,49.42
2017-08-18T12:15:37.815Z,49.40
2017-08-18T12:18:05.710Z,48.80
2017-08-18T12:20:34.086Z,48.91
2017-08-18T12:23:01.991Z,48.71
2017-08-18T12:25:29.900Z,48.40
2017-08-18T12:27:57.838Z,48.79
2017-08-18T12:30:25.734Z,48.79
2017-08-18T12:32:53.652Z,48.69
2017-08-18T12:35:21.651Z,48.91
2017-08-18T12:37:49.577Z,49.92
2017-08-18T12:40:17.480Z,50.38
2017-08-18T12:42:45.389Z,49.87
2017-08-18T12:45:13.300Z,50.53
2017-08-18T12:47:41.217Z,50.40
2017-08-18T12:50:09.124Z,50.86
2017-08-18T12:52:37.451Z,51.55
2017-08-18T12:55:05.361Z,52.51
2017-08-18T12:57:33.257Z,52.34
2017-08-18T13:00:01.434Z,53.10
2017-08-18T13:02:29.327Z,53.72
2017-08-18T13:04:57.234Z,53.12
2017-08-18T13:07:25.163Z,53.15
2017-08-18T13:09:53.075Z,53.37
2017-08-18T13:12:20.974Z,52.46
2017-08-18T13:14:49.322Z,52.04
2017-08-18T13:17:17.247Z,52.28
2017-08-18T13:19:45.152Z,51.26
2017-08-18T13:22:13.053Z,50.14
2017-08-18T13:24:40.949Z,49.96
2017-08-18T13:27:08.863Z,49.82
2017-08-18T13:29:36.772Z,49.38
2017-08-18T13:32:04.859Z,49.59
2017-08-18T13:34:32.755Z,49.36
2017-08-18T13:37:00.657Z,48.37
2017-08-18T13:39:28.562Z,48.42
2017-08-18T13:41:56.467Z,48.13
2017-08-18T13:44:24.380Z,47.41
2017-08-18T13:46:52.274Z,46.46
2017-08-18T13:49:20.191Z,46.43
2017-08-18T13:51:48.097Z,46.44
2017-08-18T13:54:16.012Z,46.09
2017-08-18T13:56:43.923Z,46.84
2017-08-18T13:59:12.190Z,46.79
2017-08-18T14:01:40.116Z,47.93
2017-08-18T14:04:08.020Z,47.96
2017-08-18T14:06:35.945Z,47.39
2017-08-18T14:09:04.149Z,47.52
2017-08-18T14:11:32.054Z,47.94
2017-08-18T14:13:59.945Z,48.12
2017-08-18T14:16:27.863Z,47.98
2017-08-18T14:18:55.773Z,48.51
2017-08-18T14:21:24.064Z,47.76
2017-08-18T14:23:51.971Z,47.79
2017-08-18T14:26:25.826Z,48.15
2017-08-18T14:28:53.744Z,48.60
2017-08-18T14:31:21.644Z,48.74
2017-08-18T14:33:49.552Z,49.79
2017-08-18T14:36:17.455Z,50.32
2017-08-18T14:38:45.376Z,49.70
2017-08-18T14:41:13.285Z,49.42
2017-08-18T14:43:41.209Z,49.09
2017-08-18T14:46:09.136Z,48.87
2017-08-18T14:48:37.047Z,49.51
2017-08-18T14:51:04.956Z,49.38
2017-08-18T14:53:33.096Z,48.68
2017-08-18T14:56:01.000Z,48.53
2017-08-18T14:58:28.900Z,48.70
2017-08-18T15:00:56.990Z,49.75
2017-08-18T15:03:24.971Z,50.29
2017-08-18T15:05:52.878Z,49.98
2017-08-18T15:08:20.794Z,53.74
2017-08-18T15:10:48.732Z,54.36
2017-08-18T15:13:16.635Z,54.72
2017-08-18T15:15:44.709Z,54.64
2017-08-18T15:18:12.628Z,54.80
2017-08-18T15:20:40.531Z,54.95
2017-08-18T15:23:08.434Z,54.52
2017-08-18T15:25:36.334Z,53.95
2017-08-18T15:28:04.250Z,53.46
2017-08-18T15:30:32.163Z,53.15
2017-08-18T15:33:00.062Z,52.70
2017-08-18T15:35:27.971Z,52.85
2017-08-18T15:37:55.895Z,52.34
2017-08-18T15:40:23.795Z,51.58
2017-08-18T15:42:51.864Z,51.22
2017-08-18T15:45:19.802Z,50.68
2017-08-18T15:47:47.703Z,50.47
2017-08-18T15:50:15.610Z,50.61
2017-08-18T15:52:43.527Z,50.92
2017-08-18T15:55:11.436Z,50.91
2017-08-18T15:57:39.344Z,50.89
2017-08-18T16:00:07.669Z,51.21
2017-08-18T16:02:35.566Z,51.54
2017-08-18T16:05:03.466Z,51.74
2017-08-18T16:07:31.380Z,51.87
2017-08-18T16:09:59.330Z,51.26
2017-08-18T16:12:27.249Z,51.18
2017-08-18T16:14:55.163Z,50.90
2017-08-18T16:17:23.093Z,51.66
2017-08-18T16:19:51.003Z,50.88
2017-08-18T16:22:18.919Z,50.77
2017-08-18T16:24:46.831Z,51.10
2017-08-18T16:27:15.124Z,51.00
2017-08-18T16:29:43.031Z,53.68
2017-08-18T16:32:10.938Z,54.51
2017-08-18T16:34:38.834Z,55.61
2017-08-18T16:37:06.730Z,55.94
2017-08-18T16:39:34.638Z,56.06
2017-08-18T16:42:02.533Z,55.81
2017-08-18T16:44:30.463Z,57.15
2017-08-18T16:46:58.376Z,56.91
2017-08-18T16:49:26.302Z,56.17
2017-08-18T16:51:54.204Z,55.98
2017-08-18T16:54:22.103Z,55.84
2017-08-18T16:56:50.011Z,55.90
2017-08-18T16:59:17.927Z,56.12
2017-08-18T17:01:45.834Z,55.99
2017-08-18T17:04:13.740Z,56.00
2017-08-18T17:06:41.646Z,56.10
2017-08-18T17:09:09.560Z,56.36
2017-08-18T17:11:37.655Z,56.54
2017-08-18T17:14:05.554Z,56.69
2017-08-18T17:16:33.755Z,57.07
2017-08-18T17:19:01.923Z,56.86
2017-08-18T17:21:29.832Z,56.61
2017-08-18T17:23:57.737Z,57.18
2017-08-18T17:26:25.651Z,57.59
2017-08-18T17:28:53.758Z,58.68
2017-08-18T17:31:21.665Z,58.94
2017-08-18T17:33:49.562Z,59.02
2017-08-18T17:36:17.778Z,59.83
2017-08-18T17:38:45.686Z,60.82
2017-08-18T17:41:13.599Z,62.00
2017-08-18T17:43:41.512Z,62.95
2017-08-18T17:46:09.419Z,63.91
2017-08-18T17:48:37.336Z,65.79
2017-08-18T17:51:05.247Z,68.48
2017-08-18T17:53:33.355Z,71.09
2017-08-18T17:56:01.261Z,73.95
2017-08-18T17:58:29.168Z,79.13
2017-08-18T18:00:57.075Z,82.32
2017-08-18T18:03:24.971Z,84.67
2017-08-18T18:05:52.888Z,87.39
2017-08-18T18:08:20.788Z,89.80
2017-08-18T18:10:48.978Z,91.54
2017-08-18T18:13:16.884Z,92.91
2017-08-18T18:15:44.992Z,94.08
2017-08-18T18:18:12.886Z,94.22
2017-08-18T18:20:40.795Z,95.63
2017-08-18T18:23:08.712Z,94.65
2017-08-18T18:25:36.645Z,93.56
2017-08-18T18:28:04.870Z,93.41
2017-08-18T18:30:32.769Z,93.99
2017-08-18T18:33:00.881Z,93.63
2017-08-18T18:35:28.800Z,95.01
2017-08-18T18:37:56.702Z,94.35
2017-08-18T18:40:24.624Z,94.08
2017-08-18T18:42:52.536Z,94.48
2017-08-18T18:45:20.468Z,95.84
2017-08-18T18:47:48.371Z,96.07
2017-08-18T18:50:16.296Z,95.76
2017-08-18T18:52:44.282Z,95.38
2017-08-18T18:55:12.215Z,96.01
2017-08-18T18:57:40.116Z,95.97
2017-08-18T19:00:08.016Z,95.99
2017-08-18T19:02:35.935Z,95.90
2017-08-18T19:05:03.856Z,95.73
2017-08-18T19:07:31.770Z,95.86
2017-08-18T19:09:59.663Z,95.57
2017-08-18T19:12:27.580Z,95.58
2017-08-18T19:14:55.479Z,94.60
2017-08-18T19:17:23.375Z,95.07
2017-08-18T19:19:51.296Z,94.50
2017-08-18T19:22:19.212Z,94.64
2017-08-18T19:24:47.114Z,94.61
2017-08-18T19:27:15.024Z,95.28
2017-08-18T19:29:42.945Z,95.30
2017-08-18T19:32:10.847Z,95.25
2017-08-18T19:34:39.037Z,94.42
2017-08-18T19:37:06.949Z,94.57
2017-08-18T19:39:34.860Z,94.79
2017-08-18T19:42:02.760Z,94.60
2017-08-18T19:44:30.676Z,94.31
2017-08-18T19:46:58.578Z,94.69
2017-08-18T19:49:26.500Z,94.01
2017-08-18T19:51:54.407Z,94.28
2017-08-18T19:54:22.315Z,93.90
2017-08-18T19:56:50.233Z,94.48
2017-08-18T19:59:18.149Z,93.87
2017-08-18T20:01:46.064Z,93.88
2017-08-18T20:04:13.959Z,94.21
2017-08-18T20:06:42.093Z,93.99
2017-08-18T20:09:09.995Z,93.56
2017-08-18T20:11:37.900Z,94.03
2017-08-18T20:14:05.906Z,93.58
2017-08-18T20:16:33.870Z,93.50
2017-08-18T20:19:01.792Z,92.85
2017-08-18T20:21:29.686Z,92.51
2017-08-18T20:23:57.598Z,91.99
2017-08-18T20:26:25.507Z,92.15
2017-08-18T20:28:53.419Z,91.94
2017-08-18T20:31:21.340Z,92.18
2017-08-18T20:33:49.464Z,91.46
2017-08-18T20:36:17.376Z,92.15
2017-08-18T20:38:45.275Z,91.93
2017-08-18T20:41:13.187Z,91.72
2017-08-18T20:43:41.192Z,91.88
2017-08-18T20:46:09.162Z,91.55
2017-08-18T20:48:37.079Z,91.58
2017-08-18T20:51:05.287Z,91.83
2017-08-18T20:53:33.370Z,91.71
2017-08-18T20:56:01.283Z,91.63
2017-08-18T20:58:29.196Z,92.38
2017-08-18T21:00:57.238Z,92.57
2017-08-18T21:03:25.135Z,92.73
2017-08-18T21:05:53.052Z,92.93
2017-08-18T21:08:20.976Z,92.82
2017-08-18T21:10:48.882Z,92.52
2017-08-18T21:13:16.796Z,93.22
2017-08-18T21:15:44.712Z,93.14
2017-08-18T21:18:12.633Z,93.07
2017-08-18T21:20:40.544Z,93.15
2017-08-18T21:23:08.464Z,93.23
2017-08-18T21:25:36.384Z,93.79
2017-08-18T21:28:04.402Z,94.06
2017-08-18T21:30:32.313Z,93.58
2017-08-18T21:33:00.234Z,92.85
2017-08-18T21:35:28.187Z,92.62
2017-08-18T21:37:56.082Z,92.58
2017-08-18T21:40:24.005Z,92.97
2017-08-18T21:42:51.902Z,93.26
2017-08-18T21:45:19.815Z,93.40
2017-08-18T21:47:47.720Z,93.09
2017-08-18T21:50:15.622Z,93.50
2017-08-18T21:52:43.513Z,93.51
2017-08-18T21:55:11.534Z,93.67
2017-08-18T21:57:39.430Z,93.39
2017-08-18T22:00:07.338Z,93.56
2017-08-18T22:02:35.602Z,93.79
2017-08-18T22:05:03.520Z,93.61
2017-08-18T22:07:31.431Z,93.43
2017-08-18T22:09:59.344Z,93.25
2017-08-18T22:12:27.245Z,93.08
2017-08-18T22:14:55.151Z,92.79
2017-08-18T22:17:23.062Z,92.94
2017-08-18T22:19:50.962Z,92.74
2017-08-18T22:22:18.903Z,93.26
2017-08-18T22:24:46.799Z,92.51
2017-08-18T22:27:14.752Z,92.05
2017-08-18T22:29:42.647Z,91.30
2017-08-18T22:32:10.935Z,91.40
2017-08-18T22:34:38.844Z,90.64
2017-08-18T22:37:06.739Z,90.85
2017-08-18T22:39:34.648Z,90.13
2017-08-18T22:42:02.542Z,89.65
2017-08-18T22:44:30.460Z,89.95
2017-08-18T22:46:58.371Z,89.83
2017-08-18T22:49:26.314Z,89.33
2017-08-18T22:51:54.224Z,89.23
2017-08-18T22:54:22.418Z,89.10
2017-08-18T22:56:50.328Z,88.54
2017-08-18T22:59:18.232Z,88.75
2017-08-18T23:01:46.134Z,88.83
2017-08-18T23:04:14.182Z,88.90
2017-08-18T23:06:42.096Z,89.02
2017-08-18T23:09:10.009Z,89.18
2017-08-18T23:11:38.242Z,89.55
2017-08-18T23:14:06.156Z,89.41
2017-08-18T23:16:34.390Z,89.39
2017-08-18T23:19:02.283Z,89.75
2017-08-18T23:21:30.199Z,90.01
2017-08-18T23:23:58.099Z,90.09
2017-08-18T23:26:26.004Z,90.25
2017-08-18T23:28:53.905Z,90.82
2017-08-18T23:31:21.807Z,90.79
2017-08-18T23:33:49.719Z,90.34
2017-08-18T23:36:17.610Z,90.62
2017-08-18T23:38:45.536Z,91.06
2017-08-18T23:41:13.435Z,90.95
2017-08-18T23:43:41.348Z,90.48
2017-08-18T23:46:09.237Z,90.66
2017-08-18T23:48:37.148Z,90.57
2017-08-18T23:51:05.062Z,90.84
2017-08-18T23:53:32.954Z,90.99
2017-08-18T23:56:00.876Z,90.94
2017-08-18T23:58:28.783Z,90.94
